createdAt,value
2022-10-11T08:34:53.853Z,17.25
2022-10-11T08:35:54.818Z,17.12
2022-10-11T08:36:55.774Z,17.25
2022-10-11T08:37:56.738Z,17.31
2022-10-11T08:38:57.723Z,17.31
2022-10-11T08:39:58.694Z,17.25
2022-10-11T08:40:59.669Z,17.25
2022-10-11T08:42:00.615Z,20.00
2022-10-11T08:43:01.575Z,21.12
2022-10-11T08:44:02.571Z,21.25
2022-10-11T08:45:10.918Z,21.38
2022-10-11T08:46:05.709Z,21.38
2022-10-11T08:47:05.295Z,21.44
2022-10-11T08:48:06.271Z,21.31
2022-10-11T08:49:07.262Z,21.31
2022-10-11T08:50:07.812Z,21.38
2022-10-11T08:51:08.234Z,21.62
2022-10-11T08:52:09.208Z,21.75
2022-10-11T08:53:10.154Z,22.06
2022-10-11T08:54:11.143Z,22.38
2022-10-11T08:55:12.149Z,22.56
2022-10-11T08:56:12.728Z,22.56
2022-10-11T08:57:13.152Z,22.38
2022-10-11T08:58:14.211Z,22.19
2022-10-11T08:59:14.622Z,21.81
2022-10-11T09:00:15.563Z,21.56
2022-10-11T09:01:16.530Z,21.44
2022-10-11T09:02:17.548Z,21.44
2022-10-11T09:03:18.414Z,21.50
2022-10-11T09:04:19.366Z,21.56
2022-10-11T09:05:20.302Z,21.75
2022-10-11T09:06:21.217Z,22.00
2022-10-11T09:07:22.196Z,22.06
2022-10-11T09:08:23.163Z,22.12
2022-10-11T09:09:24.108Z,22.38
2022-10-11T09:10:25.065Z,22.62
2022-10-11T09:11:25.996Z,22.75
2022-10-11T09:12:30.987Z,22.75
2022-10-11T09:13:28.748Z,22.81
2022-10-11T09:14:28.651Z,22.75
2022-10-11T09:15:29.609Z,22.75
2022-10-11T09:16:30.537Z,22.81
2022-10-11T09:17:31.480Z,22.69
2022-10-11T09:18:32.401Z,22.56
2022-10-11T09:19:33.330Z,22.50
2022-10-11T09:20:34.260Z,22.56
2022-10-11T09:21:35.182Z,22.62
2022-10-11T09:22:36.100Z,22.62
2022-10-11T09:23:37.028Z,22.38
2022-10-11T09:24:37.958Z,22.19
2022-10-11T09:25:38.946Z,22.06
2022-10-11T09:26:39.855Z,22.12
2022-10-11T09:28:01.706Z,22.06
2022-10-11T09:28:42.662Z,22.06
2022-10-11T09:29:42.135Z,22.31
2022-10-11T09:30:43.081Z,22.50
2022-10-11T09:31:44.074Z,22.69
2022-10-11T09:32:44.942Z,22.88
2022-10-11T09:33:45.911Z,23.12
2022-10-11T09:34:46.879Z,23.31
2022-10-11T09:35:47.923Z,23.50
2022-10-11T09:36:48.307Z,23.56
2022-10-11T09:37:49.230Z,23.69
2022-10-11T09:38:50.182Z,23.75
2022-10-11T09:39:51.076Z,23.75
2022-10-11T09:40:52.075Z,23.62
2022-10-11T09:41:53.048Z,23.56
2022-10-11T09:42:53.952Z,23.56
2022-10-11T09:43:54.911Z,23.56
2022-10-11T09:44:55.821Z,23.62
2022-10-11T09:45:56.471Z,23.62
2022-10-11T09:46:57.403Z,23.69
2022-10-11T09:47:58.319Z,23.81
2022-10-11T09:48:59.255Z,23.88
2022-10-11T09:50:00.190Z,23.94
2022-10-11T09:51:01.153Z,24.00
2022-10-11T09:52:02.086Z,24.12
2022-10-11T09:53:03.021Z,24.12
2022-10-11T09:54:03.974Z,24.06
2022-10-11T09:55:04.895Z,24.06
2022-10-11T09:56:06.083Z,24.06
2022-10-11T09:57:06.675Z,24.06
2022-10-11T09:58:07.609Z,24.19
2022-10-11T09:59:08.612Z,24.19
2022-10-11T10:00:09.462Z,24.25
2022-10-11T10:01:10.682Z,24.38
2022-10-11T10:02:13.132Z,24.50
2022-10-11T10:03:12.644Z,24.69
2022-10-11T10:04:12.580Z,24.75
2022-10-11T10:05:13.523Z,24.69
2022-10-11T10:06:14.499Z,24.44
2022-10-11T10:07:15.439Z,24.00
2022-10-11T10:08:16.333Z,23.69
2022-10-11T10:09:17.260Z,23.38
2022-10-11T10:10:18.207Z,23.00
2022-10-11T10:11:19.122Z,22.69
2022-10-11T10:12:20.060Z,22.50
2022-10-11T10:13:20.969Z,22.38
2022-10-11T10:14:21.925Z,22.25
2022-10-11T10:15:22.875Z,22.19
2022-10-11T10:16:23.831Z,22.12
2022-10-11T10:17:24.780Z,22.06
2022-10-11T10:18:25.723Z,22.00
2022-10-11T10:19:26.645Z,21.88
2022-10-11T10:20:27.596Z,21.75
2022-10-11T10:21:28.535Z,21.69
2022-10-11T10:22:29.489Z,21.69
2022-10-11T10:23:30.434Z,21.62
2022-10-11T10:24:31.334Z,21.62
2022-10-11T10:25:32.281Z,21.62
2022-10-11T10:26:33.215Z,21.56
2022-10-11T10:27:34.154Z,21.50
2022-10-11T10:28:35.182Z,21.50
2022-10-11T10:29:35.622Z,21.50
2022-10-11T10:30:36.558Z,21.44
2022-10-11T10:31:55.269Z,21.38
2022-10-11T10:32:39.270Z,21.38
2022-10-11T10:33:39.218Z,21.88
2022-10-11T10:34:40.180Z,23.19
2022-10-11T10:35:41.084Z,24.38
2022-10-11T10:36:42.020Z,25.38
2022-10-11T10:37:42.957Z,26.38
2022-10-11T10:38:46.499Z,27.12
2022-10-11T10:39:44.531Z,27.75
2022-10-11T10:40:45.465Z,28.38
2022-10-11T10:41:46.437Z,28.75
2022-10-11T10:42:47.360Z,29.00
2022-10-11T10:43:48.299Z,29.19
2022-10-11T10:44:49.233Z,29.31
2022-10-11T10:45:50.152Z,29.50
2022-10-11T10:46:51.104Z,29.75
2022-10-11T10:47:52.043Z,29.94
2022-10-11T10:49:55.324Z,30.00
2022-10-11T10:50:54.317Z,30.19
2022-10-11T10:51:55.259Z,30.12
2022-10-11T10:52:56.192Z,29.88
2022-10-11T10:53:57.126Z,29.62
2022-10-11T10:54:58.049Z,29.69
2022-10-11T10:55:58.981Z,29.69
2022-10-11T10:56:59.910Z,29.88
2022-10-11T10:58:00.839Z,30.06
2022-10-11T10:59:01.765Z,30.19
2022-10-11T11:00:02.684Z,30.38
2022-10-11T11:01:03.639Z,30.62
2022-10-11T11:02:15.994Z,30.25
2022-10-11T11:03:06.376Z,30.00
2022-10-11T11:04:06.302Z,30.12
2022-10-11T11:05:07.232Z,30.38
2022-10-11T11:06:08.576Z,30.56
2022-10-11T11:07:08.898Z,30.50
2022-10-11T11:08:09.790Z,30.50
2022-10-11T11:09:10.760Z,30.69
2022-10-11T11:10:11.700Z,30.94
2022-10-11T11:11:12.670Z,30.94
2022-10-11T11:12:13.574Z,31.00
2022-10-11T11:13:14.487Z,31.12
2022-10-11T11:14:15.439Z,31.25
2022-10-11T11:15:16.346Z,31.31
2022-10-11T11:16:17.253Z,31.50
2022-10-11T11:17:18.214Z,31.69
2022-10-11T11:18:19.156Z,31.88
2022-10-11T11:19:20.073Z,32.00
2022-10-11T11:20:21.009Z,32.06
2022-10-11T11:21:21.964Z,31.38
2022-10-11T11:22:22.922Z,30.31
2022-10-11T11:23:23.802Z,29.25
2022-10-11T11:24:24.724Z,28.12
2022-10-11T11:25:26.610Z,27.38
2022-10-11T11:26:26.530Z,26.88
2022-10-11T11:27:27.466Z,26.50
2022-10-11T11:28:28.468Z,26.19
2022-10-11T11:29:29.375Z,25.88
2022-10-11T11:30:30.347Z,25.62
2022-10-11T11:31:31.352Z,25.44
2022-10-11T11:32:31.899Z,25.75
2022-10-11T11:33:32.420Z,26.75
2022-10-11T11:34:34.355Z,27.94
2022-10-11T11:35:34.385Z,29.00
2022-10-11T11:36:34.847Z,29.44
2022-10-11T11:37:36.590Z,29.06
2022-10-11T11:38:36.503Z,28.88
2022-10-11T11:39:37.437Z,29.31
2022-10-11T11:40:38.458Z,30.00
2022-10-11T11:41:38.916Z,30.56
2022-10-11T11:42:39.834Z,31.06
2022-10-11T11:43:41.873Z,31.38
2022-10-11T11:44:41.313Z,31.69
2022-10-11T11:45:42.238Z,31.94
2022-10-11T11:46:43.175Z,31.88
2022-10-11T11:47:45.249Z,32.00
2022-10-11T11:48:44.634Z,32.12
2022-10-11T11:49:45.569Z,32.31
2022-10-11T11:50:46.524Z,32.44
2022-10-11T11:51:47.465Z,32.44
2022-10-11T11:52:49.486Z,32.38
2022-10-11T11:53:48.885Z,32.31
2022-10-11T11:54:49.897Z,32.19
2022-10-11T11:55:50.860Z,31.88
2022-10-11T11:56:51.276Z,31.56
2022-10-11T11:57:52.219Z,31.12
2022-10-11T11:58:54.242Z,30.56
2022-10-11T11:59:53.669Z,30.06
2022-10-11T12:00:54.663Z,29.81
2022-10-11T12:01:55.629Z,29.75
2022-10-11T12:02:56.532Z,29.88
2022-10-11T12:03:57.846Z,30.19
2022-10-11T12:04:58.257Z,30.38
2022-10-11T12:05:59.177Z,30.62
2022-10-11T12:07:15.498Z,30.88
2022-10-11T12:08:01.987Z,31.19
2022-10-11T12:09:02.628Z,31.44
2022-10-11T12:10:02.572Z,31.88
2022-10-11T12:11:03.739Z,32.12
2022-10-11T12:12:04.302Z,32.19
2022-10-11T12:13:05.258Z,32.38
2022-10-11T12:14:06.198Z,32.50
2022-10-11T12:15:07.130Z,32.62
2022-10-11T12:16:08.085Z,32.75
2022-10-11T12:17:08.988Z,32.81
2022-10-11T12:18:10.334Z,32.88
2022-10-11T12:19:10.760Z,32.88
2022-10-11T12:20:11.690Z,33.06
2022-10-11T12:21:12.625Z,33.19
2022-10-11T12:22:14.633Z,33.25
2022-10-11T12:23:19.104Z,33.19
2022-10-11T12:24:16.389Z,32.94
2022-10-11T12:25:18.607Z,31.94
2022-10-11T12:26:16.760Z,30.81
2022-10-11T12:27:17.776Z,30.75
2022-10-11T12:28:18.322Z,30.94
2022-10-11T12:29:18.751Z,31.31
2022-10-11T12:30:20.600Z,31.56
2022-10-11T12:31:20.552Z,31.31
2022-10-11T12:32:22.093Z,31.19
2022-10-11T12:33:22.042Z,30.69
2022-10-11T12:34:22.707Z,29.94
2022-10-11T12:35:23.618Z,29.19
2022-10-11T12:36:24.548Z,28.44
2022-10-11T12:37:25.495Z,27.94
2022-10-11T12:38:26.413Z,27.62
2022-10-11T12:39:27.363Z,27.31
2022-10-11T12:40:28.384Z,27.00
2022-10-11T12:41:29.604Z,26.69
2022-10-11T12:42:29.541Z,26.69
2022-10-11T12:43:30.507Z,26.94
2022-10-11T12:44:32.146Z,27.06
2022-10-11T12:45:32.038Z,27.06
2022-10-11T12:46:33.041Z,27.31
2022-10-11T12:47:34.080Z,27.62
2022-10-11T12:48:39.914Z,27.44
2022-10-11T12:49:36.977Z,27.00
2022-10-11T12:50:35.820Z,26.44
2022-10-11T12:51:36.924Z,26.06
2022-10-11T12:52:37.338Z,25.88
2022-10-11T12:53:38.388Z,25.75
2022-10-11T12:54:38.747Z,25.62
2022-10-11T12:55:39.657Z,25.31
2022-10-11T12:56:40.590Z,25.12
2022-10-11T12:57:46.129Z,25.00
2022-10-11T12:58:43.400Z,24.81
2022-10-11T12:59:42.822Z,24.62
2022-10-11T13:00:43.768Z,24.62
2022-10-11T13:01:44.753Z,25.06
2022-10-11T13:02:45.726Z,25.94
2022-10-11T13:03:46.204Z,26.88
2022-10-11T13:04:47.235Z,27.56
2022-10-11T13:05:53.498Z,28.19
2022-10-11T13:06:49.912Z,28.56
2022-10-11T13:07:49.829Z,28.88
2022-10-11T13:08:50.813Z,29.06
2022-10-11T13:09:51.844Z,29.12
2022-10-11T13:10:53.028Z,29.12
2022-10-11T13:11:53.755Z,29.12
2022-10-11T13:12:54.353Z,29.12
2022-10-11T13:13:54.740Z,29.12
2022-10-11T13:14:56.076Z,29.06
2022-10-11T13:15:56.458Z,29.12
2022-10-11T13:16:57.379Z,29.12
2022-10-11T13:17:58.328Z,29.12
2022-10-11T13:18:59.346Z,29.25
2022-10-11T13:20:00.289Z,29.44
2022-10-11T13:21:01.330Z,29.31
2022-10-11T13:22:01.698Z,29.25
2022-10-11T13:23:02.646Z,29.38
2022-10-11T13:24:03.597Z,29.31
2022-10-11T13:25:04.520Z,29.25
2022-10-11T13:26:05.441Z,29.12
2022-10-11T13:27:06.379Z,29.06
2022-10-11T13:28:07.343Z,29.06
2022-10-11T13:29:08.228Z,29.19
2022-10-11T13:30:09.245Z,29.12
2022-10-11T13:31:10.081Z,29.00
2022-10-11T13:32:11.021Z,28.94
2022-10-11T13:33:11.944Z,28.94
2022-10-11T13:34:12.897Z,28.94
2022-10-11T13:35:13.845Z,29.00
2022-10-11T13:36:14.858Z,28.81
2022-10-11T13:37:15.730Z,28.75
2022-10-11T13:38:16.658Z,28.62
2022-10-11T13:39:18.719Z,28.62
2022-10-11T13:40:18.176Z,28.69
2022-10-11T13:41:19.057Z,28.69
2022-10-11T13:42:19.999Z,28.62
2022-10-11T13:43:20.920Z,28.56
2022-10-11T13:44:21.845Z,28.56
2022-10-11T13:45:22.843Z,28.50
2022-10-11T13:46:23.775Z,28.50
2022-10-11T13:47:24.682Z,28.38
2022-10-11T13:48:30.745Z,28.31
2022-10-11T13:49:27.607Z,28.25
2022-10-11T13:50:28.153Z,28.12
2022-10-11T13:51:27.524Z,28.06
2022-10-11T13:52:28.476Z,28.00
2022-10-11T13:53:29.412Z,27.94
2022-10-11T13:54:30.444Z,27.81
2022-10-11T13:55:30.852Z,27.75
2022-10-11T13:56:31.759Z,27.69
2022-10-11T13:57:32.668Z,27.69
2022-10-11T13:58:33.641Z,27.56
2022-10-11T13:59:34.562Z,27.56
2022-10-11T14:00:35.487Z,27.50
2022-10-11T14:01:36.483Z,27.38
2022-10-11T14:02:37.332Z,27.31
2022-10-11T14:03:38.254Z,27.25
2022-10-11T14:04:39.245Z,27.19
2022-10-11T14:05:41.139Z,27.12
